x

Virginia Beach 64 Nm East Of Virginia Beach, Va (44014) Wave Buoy

2:50 - Sat 27th Dec 2014 All times are EST. -5 hours from GMT.

  • Sig Wave height 3.0ft
  • Swell Direction
  • Peak Period 16s
  • Average Period 9s
  • Wind
    7mph
  • Sea Temp 53°f
  • Aire Temp 53°f
  • Sea Pressure 1023.8mb
  • Virginia Beach 64 Nm East Of Virginia Beach, Va
  • Virginia Beach 64 Nm East Of Virginia Beach, Va

More Historic Weather Station data

Upgrade to MSW Pro to gain access to the past 30 days of data for over 8000 Wavebouys and Weather Stations around the globe.

Join Pro

Comparision Forecast

View Surf forecast
   
sáb 12/27 2:50 3ft 16s 9s 7
mph
1023.8mb 53f 53f
1:50 2.5ft 16s 8s 9
mph
1024mb 53f 52f
12:50 2.5ft 16s 8s 9 11 mph 1025.1mb 53f 52f
11:50 2.5ft 16s 8s 9 11 mph 1025.3mb 52f 52f
10:50 2.5ft 16s 8s 7
mph
1026.3mb 52f 52f
9:50 2.5ft 17s 7s 7 9 mph 1027.2mb 52f 52f
8:50 2ft 17s 7s 7 9 mph 1026.9mb 52f 52f
7:50 2ft 12s 7s 9
mph
1026.6mb 52f 52f
6:50 2ft 17s 6s 7 9 mph 1025.6mb 52f 52f
5:50 2.5ft 17s 7s 7 9 mph 1024.9mb 52f 51f
4:50 2.5ft 12s 7s 9 11 mph 1025.2mb 52f 51f
3:50 2.5ft 12s 7s 9 11 mph 1025mb 52f 51f
2:50 2.5ft 14s 7s 9
mph
1025.5mb 52f 52f
1:50 2.5ft 12s 7s 9 11 mph 1025.2mb 52f 52f
12:50 2.5ft 8s 7s 7 9 mph 1024.9mb 52f 51f
vie 12/26 11:50 2ft 8s 7s 4
mph
1025.4mb 52f 50f
10:50 2ft 9s 6s 2
mph
1026mb 52f 50f
9:50 2ft 9s 6s  -  mph 1026.6mb 52f 50f
8:50 2.5ft 12s 6s 2
mph
1026.2mb 52f 50f
7:50 2ft 8s 6s 2 4 mph 1026.3mb 52f 50f
6:50 2.5ft 13s 6s 4
mph
1026mb 52f 50f
5:50 2.5ft 7s 6s 4
mph
1025.4mb 52f 50f
4:50 2.5ft 13s 6s 2 4 mph 1025.1mb 52f 50f
3:50 2.5ft 7s 6s 2 4 mph 1024.9mb 52f 51f
2:50 2.5ft 8s 6s 2 4 mph 1025.1mb 52f 51f
1:50 2.5ft 8s 6s 7
mph
1025.1mb 52f 51f
12:50 2.5ft 8s 6s 4
mph
1025.4mb 52f 51f
11:50 2.5ft 7s 6s 4
mph
1026mb 52f 51f
10:50 2.5ft 8s 6s 4 7 mph 1026.9mb 52f 51f
9:50 2.5ft 8s 5s 7
mph
1026.8mb 52f 51f
8:50 2.5ft 8s 5s 9
mph
1026.5mb 52f 51f
7:50 2.5ft 9s 5s 7 9 mph 1025.6mb 52f 51f
6:50 2.5ft 8s 5s 4 7 mph 1025mb 52f 51f
5:50 2.5ft 8s 6s 7
mph
1024.5mb 52f 51f
4:50 2.5ft 7s 6s 7 9 mph 1023.7mb 52f 51f
3:50 3ft 8s 6s 4 7 mph 1023.5mb 52f 52f
2:50 3ft 5s 6s 4
mph
1023.8mb 52f 52f
1:50 3ft 8s 6s 7
mph
1023.7mb 52f 52f
12:50 3.5ft 9s 6s 7
mph
1023.2mb 52f 52f
jue 12/25 11:50 3.5ft 8s 6s 7
mph
1023mb 52f 52f
10:50 3.5ft 9s 6s 4 7 mph 1022.9mb 52f 52f
9:50 3.5ft 8s 6s 4
mph
1022.8mb 52f 52f
8:50 4ft 6s 6s 4
mph
1022mb 52f 52f
7:50 4ft 8s 5s 2
mph
1020.8mb 53f 51f
6:50 4.5ft 8s 6s 2
mph
1020.9mb 53f 52f
5:50 4.5ft 8s 5s 7
mph
1019.5mb 53f 52f
4:50 5ft 8s 5s 4 7 mph 1018.6mb 53f 52f
3:50 4.5ft 9s 5s 7 9 mph 1017.6mb 53f 53f
2:50 5ft 8s 5s 9 11 mph 1016.3mb 53f 53f
1:50 5ft 8s 5s 13 18 mph 1015.2mb 53f 53f
12:50 5ft 8s 5s 16 20 mph 1014.3mb 53f 53f
11:50 6ft 8s 5s 16 20 mph 1013.4mb 53f 53f
10:50 6ft 8s 6s 25 31 mph 1011.9mb 53f 56f
9:50 7ft 7s 6s 22 27 mph 1010.2mb 53f 57f
8:50 6ft 7s 6s 16 18 mph 1008.4mb 53f 57f
7:50 6ft 8s 6s 11 13 mph 1008.1mb 53f 56f
6:50 5.5ft 7s 6s 11 13 mph 1006.9mb 53f 56f
5:50 6ft 8s 6s 7 9 mph 1006.2mb 53f 56f
4:50 6ft 8s 6s 13 16 mph 1005.5mb 53f 57f
3:50 7ft 8s 6s 18 20 mph 1005.4mb 53f 58f
2:50 7ft 8s 6s 20 22 mph 1005.1mb 53f 61f
1:50 7ft 8s 6s 20 22 mph 1005.3mb 53f 60f
12:50 7ft 8s 6s 22 25 mph 1005mb 53f 60f
mié 12/24 11:50 7ft 8s 6s 18 20 mph 1005.8mb 53f 58f
10:50 7ft 8s 6s 18 20 mph 1006.5mb 53f 59f
9:50 7ft 8s 6s 20 22 mph 1007mb 53f 59f
8:50 7ft 7s 6s 25 29 mph 1007.3mb 53f 60f
7:50 6.5ft 7s 6s 20 25 mph 1007.4mb 53f 59f
6:50 7ft 7s 6s 25 29 mph 1007.2mb 53f 61f
5:50 7ft 8s 6s 20 31 mph 1007.7mb 53f 60f
4:50 6ft 7s 5s 20 25 mph 1007.9mb 53f 60f
3:50 5ft 7s 5s 22 27 mph 1008.5mb 53f 61f
2:50 5ft 6s 5s 22 27 mph 1008.2mb 53f 60f
1:50 4.5ft 6s 5s 18 20 mph 1008.8mb 53f 60f
12:50 4.5ft 9s 5s 18 20 mph 1009.5mb 53f 60f
11:50 4.5ft 7s 5s 16 18 mph 1010.6mb 53f 60f
10:50 4ft 10s 5s 18 20 mph 1011.7mb 53f 60f
9:50 4.5ft 8s 6s 13 16 mph 1012.5mb 53f 60f
8:50 4.5ft 7s 6s 16
mph
1012.4mb 53f 60f
7:50 4ft 7s 6s 16 20 mph 1011.9mb 53f 61f
6:50 4.5ft 8s 6s 16 18 mph 1011.6mb 53f 60f
5:50 3.5ft 9s 7s 13 16 mph 1013.3mb 53f 60f
4:50 4ft 8s 7s 13
mph
1013.2mb 53f 61f
3:50 4ft 7s 7s 7 9 mph 1014.6mb 53f 59f
2:50 4ft 8s 7s 7 9 mph 1015mb 53f 56f
1:50 4.5ft 8s 7s 4
mph
1015.6mb 53f 56f
12:50 4.5ft 9s 7s 4 7 mph 1016.3mb 54f 56f
mar 12/23 11:50 4.5ft 7s 7s 9 11 mph 1016mb 53f 55f
10:50 4.5ft 8s 7s 7
mph
1017.1mb 53f 53f
9:50 4.5ft 9s 7s 9
mph
1016.8mb 53f 52f